Time;durP1;ratioP1;P1;durP2;ratioP2;P2;SDS_P1;SDS_P2;PMS_P1;PMS_P2;Temp;Humidity;BMP_temperature;BMP_pressure;BME280_temperature;BME280_humidity;BME280_pressure;Samples;Min_cycle;Max_cycle;Signal;HPM_P1;HPM_P2
2022/04/30 00:01:17;;;;;;;8.20;7.40;;;;;;;11.40;68.23;95205.69;5093567;28;20102;-69
2022/04/30 00:03:42;;;;;;;7.85;7.05;;;;;;;11.45;68.47;95211.38;5092004;28;20024;-67
2022/04/30 00:06:08;;;;;;;9.73;7.68;;;;;;;11.40;68.89;95210.91;5089476;28;20468;-68
2022/04/30 00:08:33;;;;;;;9.60;7.72;;;;;;;11.41;68.92;95207.34;5075108;28;20452;-67
2022/04/30 00:10:59;;;;;;;9.13;7.93;;;;;;;11.38;68.38;95207.59;5092205;28;20028;-67
2022/04/30 00:13:24;;;;;;;8.50;7.55;;;;;;;11.46;69.09;95209.59;5083120;28;20078;-67
2022/04/30 00:15:49;;;;;;;9.02;7.70;;;;;;;11.44;68.81;95207.09;5071026;28;20036;-67
2022/04/30 00:18:15;;;;;;;9.57;7.82;;;;;;;11.43;68.75;95202.84;5091604;28;20460;-67
2022/04/30 00:20:45;;;;;;;9.43;7.63;;;;;;;11.40;68.70;95203.09;5063375;28;20111;-67
2022/04/30 00:23:19;;;;;;;9.15;8.05;;;;;;;11.38;68.65;95191.97;5091822;28;20504;-67
2022/04/30 00:25:48;;;;;;;8.93;8.02;;;;;;;11.37;68.91;95200.75;5076382;28;20035;-67
2022/04/30 00:28:14;;;;;;;8.75;7.85;;;;;;;11.34;68.85;95203.59;5091974;28;20027;-67
2022/04/30 00:30:41;;;;;;;8.10;7.30;;;;;;;11.27;69.15;95195.44;5090101;28;20036;-67
2022/04/30 00:33:09;;;;;;;8.85;7.55;;;;;;;11.35;69.16;95200.03;5075278;28;20441;-68
2022/04/30 00:35:36;;;;;;;10.32;7.82;;;;;;;11.39;67.34;95204.03;5091539;28;20629;-68
2022/04/30 00:38:01;;;;;;;8.70;7.65;;;;;;;11.48;67.76;95205.06;5068303;28;20032;-68
2022/04/30 00:40:27;;;;;;;8.40;7.47;;;;;;;11.47;67.01;95195.63;5054860;28;20035;-68
2022/04/30 00:42:52;;;;;;;8.38;7.40;;;;;;;11.51;66.59;95203.06;5071436;28;20016;-67
2022/04/30 00:45:18;;;;;;;9.98;7.93;;;;;;;11.53;67.78;95201.19;5080742;28;20417;-68
2022/04/30 00:47:43;;;;;;;9.45;8.48;;;;;;;11.52;66.63;95191.69;5091026;28;20036;-67
2022/04/30 00:50:10;;;;;;;9.50;8.50;;;;;;;11.61;67.12;95200.53;5092961;28;20035;-67
2022/04/30 00:52:36;;;;;;;8.20;7.40;;;;;;;11.47;67.34;95196.44;5073701;28;20548;-68
2022/04/30 00:55:06;;;;;;;11.63;9.23;;;;;;;11.41;65.83;95197.75;5069760;28;20040;-67
2022/04/30 00:57:31;;;;;;;9.93;8.15;;;;;;;11.29;66.19;95190.94;5076917;28;20085;-68
2022/04/30 01:00:01;;;;;;;7.95;7.15;;;;;;;11.18;66.28;95194.41;5074143;28;20028;-67
2022/04/30 01:02:28;;;;;;;8.55;7.63;;;;;;;11.09;67.53;95197.72;5076285;28;20037;-67
2022/04/30 01:04:57;;;;;;;8.35;7.45;;;;;;;11.11;67.79;95197.59;5072327;28;20040;-68
2022/04/30 01:07:23;;;;;;;8.07;7.25;;;;;;;11.04;68.23;95189.47;5072366;28;20032;-67
2022/04/30 01:09:49;;;;;;;8.45;7.60;;;;;;;11.03;67.38;95187.81;5057002;28;20032;-67
2022/04/30 01:12:14;;;;;;;7.88;7.13;;;;;;;11.03;65.98;95186.97;5073180;28;20549;-67
2022/04/30 01:14:40;;;;;;;8.02;7.22;;;;;;;11.00;66.24;95197.59;5074129;28;20040;-68
2022/04/30 01:17:08;;;;;;;8.63;7.43;;;;;;;10.96;66.52;95191.84;5072349;28;20035;-67
2022/04/30 01:19:36;;;;;;;7.93;7.13;;;;;;;10.99;66.00;95191.59;5090920;28;20158;-68
2022/04/30 01:22:08;;;;;;;7.88;6.75;;;;;;;11.00;65.37;95185.44;5073060;28;20031;-67
2022/04/30 01:24:34;;;;;;;8.05;6.63;;;;;;;10.98;64.73;95179.56;5061700;28;20033;-68
2022/04/30 01:27:00;;;;;;;7.68;6.97;;;;;;;10.93;64.48;95189.47;5052899;28;20063;-67
2022/04/30 01:29:27;;;;;;;8.85;7.13;;;;;;;10.92;64.48;95180.84;5053920;28;20059;-67
2022/04/30 01:37:25;;;;;;;7.95;7.10;;;;;;;10.84;64.47;95185.81;5092115;28;20047;-67
2022/04/30 01:39:58;;;;;;;8.98;7.22;;;;;;;10.76;64.64;95177.81;5077045;28;20468;-67
2022/04/30 01:42:24;;;;;;;7.95;6.53;;;;;;;10.69;66.04;95174.84;5053578;28;20025;-68
2022/04/30 01:44:50;;;;;;;8.07;7.28;;;;;;;10.45;66.98;95176.75;5070185;28;20486;-67
2022/04/30 01:47:15;;;;;;;7.65;6.80;;;;;;;10.29;66.08;95175.31;5071360;28;20029;-67
2022/04/30 01:49:41;;;;;;;8.15;7.35;;;;;;;10.07;66.88;95188.22;5070999;28;20054;-67
2022/04/30 01:52:07;;;;;;;8.10;7.18;;;;;;;9.88;67.54;95178.38;5070244;28;20065;-67
2022/04/30 01:54:34;;;;;;;7.50;6.70;;;;;;;9.86;67.89;95182.84;5068942;28;20424;-67
2022/04/30 01:56:59;;;;;;;8.30;7.40;;;;;;;9.79;68.39;95185.06;5083617;28;20494;-68
2022/04/30 01:59:24;;;;;;;9.60;8.60;;;;;;;9.78;68.26;95191.22;5079407;28;20039;-67
2022/04/30 02:01:50;;;;;;;9.85;8.15;;;;;;;9.83;67.71;95188.25;5080408;28;20028;-67
2022/04/30 02:04:15;;;;;;;8.82;7.88;;;;;;;9.88;67.65;95190.53;5079431;28;20028;-68
2022/04/30 02:06:40;;;;;;;9.20;8.02;;;;;;;9.77;68.25;95189.53;5052625;28;20033;-67
2022/04/30 02:09:06;;;;;;;11.25;7.63;;;;;;;9.79;68.20;95190.25;5085742;28;20497;-67
2022/04/30 02:11:31;;;;;;;9.30;8.18;;;;;;;9.76;68.33;95187.91;5088587;28;20043;-67
2022/04/30 02:13:57;;;;;;;7.63;6.60;;;;;;;9.73;69.08;95179.53;5070642;28;20437;-68
2022/04/30 02:16:23;;;;;;;8.57;7.68;;;;;;;9.60;69.43;95164.84;5037885;28;20421;-67
2022/04/30 02:18:49;;;;;;;9.13;7.85;;;;;;;9.68;69.36;95181.63;5053050;28;20108;-67
2022/04/30 02:21:16;;;;;;;8.02;7.13;;;;;;;9.62;69.55;95167.34;5069623;28;20028;-67
2022/04/30 02:23:41;;;;;;;8.02;7.15;;;;;;;9.77;69.46;95173.97;5077506;28;20028;-67
2022/04/30 02:26:09;;;;;;;7.90;7.10;;;;;;;9.77;69.67;95175.75;5069773;28;20024;-67
2022/04/30 02:28:34;;;;;;;8.68;7.38;;;;;;;9.70;69.76;95171.97;5069614;28;20078;-68
2022/04/30 02:31:00;;;;;;;8.65;7.38;;;;;;;9.66;70.46;95170.53;5070652;28;20036;-67
2022/04/30 02:33:25;;;;;;;8.80;7.25;;;;;;;9.70;70.49;95165.00;5090666;28;20474;-67
2022/04/30 02:35:51;;;;;;;7.93;6.90;;;;;;;9.69;70.10;95167.69;5079466;28;20044;-68
2022/04/30 02:38:19;;;;;;;7.78;7.00;;;;;;;9.63;70.44;95168.97;5090355;28;20035;-67
2022/04/30 02:40:45;;;;;;;8.05;7.25;;;;;;;9.66;70.44;95162.75;5089754;28;20244;-67
2022/04/30 02:43:11;;;;;;;8.57;7.18;;;;;;;9.70;70.80;95169.38;5087918;28;20029;-67
2022/04/30 02:45:38;;;;;;;7.15;6.45;;;;;;;9.74;70.66;95174.19;5065131;28;20037;-67
2022/04/30 02:48:06;;;;;;;9.15;7.40;;;;;;;9.80;70.11;95175.50;5049514;28;20543;-67
2022/04/30 02:50:31;;;;;;;7.47;6.68;;;;;;;9.74;69.10;95148.25;5053138;28;20132;-67
2022/04/30 02:52:58;;;;;;;7.32;6.57;;;;;;;9.93;69.44;95167.66;5053882;28;20033;-67
2022/04/30 02:55:23;;;;;;;7.75;6.55;;;;;;;9.97;69.81;95167.31;5089444;28;20031;-67
2022/04/30 03:00:39;;;;;;;7.57;6.75;;;;;;;9.94;70.24;95171.91;5055604;28;20097;-68
2022/04/30 03:03:09;;;;;;;8.30;7.13;;;;;;;9.97;70.35;95164.72;5069306;28;20028;-67
2022/04/30 03:05:40;;;;;;;7.05;6.30;;;;;;;9.97;70.31;95161.28;5052612;28;20456;-67
2022/04/30 03:08:23;;;;;;;8.00;7.20;;;;;;;10.00;69.32;95161.06;5052717;28;20025;-67
2022/04/30 03:10:55;;;;;;;8.02;7.10;;;;;;;9.99;68.94;95155.03;5069104;28;20075;-67
2022/04/30 03:13:21;;;;;;;9.07;6.93;;;;;;;10.08;68.31;95163.91;5070450;28;20049;-68
2022/04/30 03:15:48;;;;;;;8.45;7.28;;;;;;;10.06;68.42;95153.66;5069359;28;20036;-67
2022/04/30 03:23:41;;;;;;;7.40;6.53;;;;;;;10.29;68.23;95151.09;5070254;28;20073;-67
2022/04/30 03:26:08;;;;;;;7.15;6.45;;;;;;;10.38;68.14;95159.97;5052195;28;20036;-68
2022/04/30 03:28:34;;;;;;;7.55;6.75;;;;;;;10.40;68.26;95161.50;5052420;28;20036;-68
2022/04/30 03:31:00;;;;;;;7.28;6.57;;;;;;;10.41;67.79;95159.72;5080830;28;20024;-68
2022/04/30 03:33:26;;;;;;;7.25;6.55;;;;;;;10.48;67.17;95159.16;5089306;28;20028;-68
2022/04/30 03:35:51;;;;;;;8.93;7.05;;;;;;;10.51;66.99;95163.28;5090337;28;20055;-67
2022/04/30 03:38:17;;;;;;;7.75;6.88;;;;;;;10.56;66.74;95165.50;5090347;28;20562;-67
2022/04/30 03:40:42;;;;;;;7.05;6.35;;;;;;;10.55;66.80;95156.06;5069945;28;20037;-68
2022/04/30 03:43:08;;;;;;;7.43;6.60;;;;;;;10.61;66.80;95172.00;5068988;28;20032;-67
2022/04/30 03:45:34;;;;;;;8.48;7.00;;;;;;;10.64;66.92;95170.94;5070001;28;20513;-69
2022/04/30 03:47:59;;;;;;;6.97;6.28;;;;;;;10.67;66.88;95179.34;5052284;28;20028;-67
2022/04/30 03:50:25;;;;;;;7.65;6.88;;;;;;;10.69;67.16;95172.22;5071694;28;20052;-68
2022/04/30 03:52:50;;;;;;;7.95;6.10;;;;;;;10.72;68.01;95179.78;5073281;28;20033;-67
2022/04/30 03:55:16;;;;;;;7.78;6.72;;;;;;;10.66;67.84;95164.69;5072397;28;20040;-68
2022/04/30 03:57:41;;;;;;;8.90;6.97;;;;;;;10.70;69.14;95181.69;5073435;28;20033;-68
2022/04/30 04:00:08;;;;;;;7.05;6.35;;;;;;;10.71;69.28;95178.16;5086585;28;20471;-67
2022/04/30 04:02:34;;;;;;;7.47;6.72;;;;;;;10.76;69.30;95177.81;5059212;28;20024;-67
2022/04/30 04:05:00;;;;;;;7.88;7.07;;;;;;;10.76;69.49;95189.97;5092401;28;20055;-68
2022/04/30 04:07:26;;;;;;;9.38;8.45;;;;;;;10.72;69.48;95191.97;5092334;28;20417;-68
2022/04/30 04:09:51;;;;;;;10.38;8.38;;;;;;;10.68;70.05;95187.97;5074678;28;20524;-67
2022/04/30 04:12:17;;;;;;;10.07;8.25;;;;;;;10.63;70.23;95188.31;5090550;28;20035;-67
2022/04/30 04:17:38;;;;;;;9.55;8.55;;;;;;;10.76;70.17;95195.16;5073204;28;20162;-68
2022/04/30 04:20:08;;;;;;;10.05;8.55;;;;;;;10.82;69.29;95192.09;5071896;28;20063;-67
2022/04/30 04:22:34;;;;;;;9.85;8.85;;;;;;;10.87;68.78;95193.38;5081350;28;20429;-67
2022/04/30 04:27:43;;;;;;;11.10;9.00;;;;;;;11.10;67.31;95194.16;5092207;28;20472;-67
2022/04/30 04:30:09;;;;;;;12.98;9.75;;;;;;;11.13;67.31;95185.31;5087225;28;20032;-68
2022/04/30 04:32:34;;;;;;;13.30;9.05;;;;;;;11.32;66.99;95189.88;5077056;28;20024;-67
2022/04/30 04:35:00;;;;;;;9.57;8.57;;;;;;;11.73;66.03;95190.91;5085176;28;20044;-68
2022/04/30 04:37:25;;;;;;;9.95;8.85;;;;;;;12.04;64.07;95195.28;5075179;28;20055;-68
2022/04/30 04:39:51;;;;;;;10.15;8.50;;;;;;;12.44;62.09;95184.16;5071436;28;20505;-68
2022/04/30 04:42:19;;;;;;;9.95;8.95;;;;;;;12.52;62.25;95188.72;5073705;28;20430;-68
2022/04/30 04:44:44;;;;;;;10.20;8.98;;;;;;;12.98;61.05;95174.34;5081560;28;20406;-68
2022/04/30 04:47:10;;;;;;;10.00;9.02;;;;;;;13.39;59.75;95178.59;5092711;28;20039;-68
2022/04/30 04:49:35;;;;;;;9.48;8.30;;;;;;;13.89;59.18;95179.44;5090825;28;20032;-68
2022/04/30 04:52:01;;;;;;;8.80;7.90;;;;;;;14.22;57.35;95184.22;5057498;28;20034;-68
2022/04/30 04:54:27;;;;;;;8.90;8.05;;;;;;;14.58;55.63;95189.66;5092730;28;20032;-68
2022/04/30 04:56:52;;;;;;;12.27;8.38;;;;;;;14.91;54.17;95195.34;5089200;28;20044;-68
2022/04/30 04:59:18;;;;;;;10.85;8.98;;;;;;;14.63;54.22;95189.25;5071064;28;20051;-68
2022/04/30 05:01:43;;;;;;;15.05;9.32;;;;;;;14.12;56.08;95196.44;5070917;28;20044;-68
2022/04/30 05:04:09;;;;;;;10.50;9.43;;;;;;;13.84;56.63;95192.91;5072145;28;20090;-68
2022/04/30 05:06:35;;;;;;;10.63;9.52;;;;;;;13.69;56.55;95189.88;5076642;28;20025;-68
2022/04/30 05:09:01;;;;;;;11.57;10.18;;;;;;;13.53;56.98;95202.63;5036995;28;20032;-68
2022/04/30 05:11:26;;;;;;;11.98;10.02;;;;;;;13.34;58.09;95198.22;5081864;28;20111;-69
2022/04/30 05:13:51;;;;;;;11.93;9.95;;;;;;;13.37;58.11;95206.63;5037477;28;20041;-69
2022/04/30 05:16:17;;;;;;;13.48;9.13;;;;;;;13.21;58.42;95190.63;5078959;28;20028;-69
2022/04/30 05:18:42;;;;;;;11.52;9.38;;;;;;;13.13;58.64;95213.94;5090920;28;20035;-67
2022/04/30 05:21:08;;;;;;;12.27;10.23;;;;;;;13.08;59.01;95205.69;5092040;28;20032;-68
2022/04/30 05:23:33;;;;;;;14.63;11.88;;;;;;;13.07;58.81;95204.03;5092050;28;20198;-68
2022/04/30 05:25:59;;;;;;;14.80;10.27;;;;;;;13.02;60.06;95208.81;5057043;28;20409;-67
2022/04/30 05:28:24;;;;;;;12.15;9.45;;;;;;;13.06;59.98;95218.00;5064054;28;20058;-68
2022/04/30 05:30:49;;;;;;;12.68;9.65;;;;;;;13.05;59.81;95221.59;5079130;28;20063;-67
2022/04/30 05:33:15;;;;;;;12.05;10.77;;;;;;;13.03;59.73;95215.69;5074304;28;20027;-67
2022/04/30 05:35:40;;;;;;;12.70;9.63;;;;;;;13.04;59.54;95206.88;5072959;28;20064;-68
2022/04/30 05:38:06;;;;;;;13.35;10.85;;;;;;;13.12;59.31;95213.13;5070367;28;20020;-68
2022/04/30 05:40:31;;;;;;;13.35;9.95;;;;;;;13.14;59.69;95211.19;5071902;28;20036;-68
2022/04/30 05:42:56;;;;;;;11.00;9.23;;;;;;;13.17;59.61;95212.69;5071444;28;20028;-68
2022/04/30 05:45:22;;;;;;;11.50;10.15;;;;;;;13.19;59.53;95206.38;5070132;28;20043;-68
2022/04/30 05:47:48;;;;;;;12.02;9.07;;;;;;;13.30;59.50;95208.09;5068369;28;20464;-67
2022/04/30 05:50:13;;;;;;;12.80;9.45;;;;;;;13.37;59.14;95205.75;5087229;28;20118;-71
2022/04/30 05:52:39;;;;;;;16.10;10.20;;;;;;;13.40;58.89;95218.56;5055213;28;20028;-71
2022/04/30 05:55:05;;;;;;;12.07;10.07;;;;;;;13.41;58.74;95215.00;5090164;28;20028;-72
2022/04/30 05:57:31;;;;;;;11.38;8.93;;;;;;;13.38;58.81;95218.69;5089780;28;20034;-71
2022/04/30 05:59:56;;;;;;;12.50;9.77;;;;;;;13.40;58.85;95219.38;5090050;28;20024;-72
2022/04/30 06:02:22;;;;;;;10.98;9.88;;;;;;;13.48;59.03;95212.66;5091160;28;20043;-71
2022/04/30 06:04:47;;;;;;;22.75;20.55;;;;;;;13.56;58.96;95216.25;5089773;28;20524;-71
2022/04/30 06:07:13;;;;;;;12.93;9.57;;;;;;;13.59;56.87;95215.16;5091018;28;20024;-71
2022/04/30 06:09:38;;;;;;;13.65;10.18;;;;;;;13.66;58.03;95218.88;5091258;28;20035;-72
2022/04/30 06:12:05;;;;;;;11.52;9.43;;;;;;;13.77;57.31;95223.97;5065597;28;20443;-71
2022/04/30 06:14:30;;;;;;;12.93;8.95;;;;;;;13.79;56.92;95222.06;5091011;28;20036;-70
2022/04/30 06:16:56;;;;;;;11.32;10.20;;;;;;;13.80;57.85;95212.44;5065302;28;20036;-71
2022/04/30 06:19:22;;;;;;;12.00;10.32;;;;;;;13.90;57.21;95218.50;5070663;28;20044;-71
2022/04/30 06:21:48;;;;;;;15.35;10.75;;;;;;;13.88;55.46;95215.19;5055084;28;20060;-71
2022/04/30 06:24:14;;;;;;;12.75;11.02;;;;;;;13.98;57.03;95220.38;5085153;28;20550;-72
2022/04/30 06:26:40;;;;;;;13.25;8.90;;;;;;;14.09;55.02;95222.84;5089445;28;20110;-71
2022/04/30 06:29:05;;;;;;;11.38;8.07;;;;;;;14.22;54.94;95218.19;5090793;28;20036;-72
2022/04/30 06:31:31;;;;;;;10.55;8.30;;;;;;;14.35;54.40;95207.44;5088016;28;20031;-72
2022/04/30 06:33:56;;;;;;;10.55;8.88;;;;;;;14.49;53.22;95220.06;5054565;28;20025;-71
2022/04/30 06:36:22;;;;;;;9.80;7.75;;;;;;;14.62;52.75;95218.94;5088588;28;20036;-70
2022/04/30 06:38:48;;;;;;;9.07;7.00;;;;;;;14.82;52.25;95220.56;5050010;28;20032;-71
2022/04/30 06:41:14;;;;;;;8.32;7.50;;;;;;;15.03;51.64;95222.94;5082344;28;20032;-70
2022/04/30 06:43:41;;;;;;;7.03;6.32;;;;;;;15.19;50.33;95214.47;5075927;28;20024;-71
2022/04/30 06:46:07;;;;;;;7.40;6.70;;;;;;;15.33;50.69;95221.03;5080438;28;20041;-72
2022/04/30 06:48:33;;;;;;;7.80;6.50;;;;;;;15.31;49.79;95215.91;5081556;28;20417;-71
2022/04/30 06:50:59;;;;;;;7.60;6.80;;;;;;;15.20;50.91;95209.09;5079595;28;20028;-72
2022/04/30 06:58:59;;;;;;;8.98;7.03;;;;;;;15.04;51.19;95203.66;5086582;28;20063;-73
2022/04/30 07:04:17;;;;;;;9.35;7.57;;;;;;;14.96;52.43;95206.19;5060821;28;20063;-71
2022/04/30 07:06:42;;;;;;;7.65;6.88;;;;;;;15.16;51.39;95206.91;5081267;28;20032;-71
2022/04/30 07:09:08;;;;;;;7.72;6.93;;;;;;;15.23;51.17;95205.34;5088144;28;20115;-71
2022/04/30 07:11:34;;;;;;;7.28;6.57;;;;;;;15.42;50.61;95201.81;5084721;28;20035;-72
2022/04/30 07:13:59;;;;;;;8.18;7.38;;;;;;;15.53;50.61;95200.78;5055384;28;20052;-72
2022/04/30 07:16:25;;;;;;;8.50;7.10;;;;;;;15.67;49.99;95200.25;5070186;28;20465;-71
2022/04/30 07:18:51;;;;;;;8.63;7.47;;;;;;;15.85;50.09;95213.38;5070929;28;20055;-72
2022/04/30 07:21:16;;;;;;;7.88;7.07;;;;;;;15.97;49.05;95204.34;5080772;28;20032;-71
2022/04/30 07:23:42;;;;;;;8.45;7.43;;;;;;;16.12;48.77;95204.63;5085038;28;20031;-72
2022/04/30 07:26:07;;;;;;;7.93;7.13;;;;;;;16.29;48.28;95202.94;5056090;28;20033;-72
2022/04/30 07:28:35;;;;;;;9.70;7.55;;;;;;;16.44;48.40;95206.69;5072771;28;20029;-72
2022/04/30 07:31:01;;;;;;;8.40;7.10;;;;;;;16.60;47.14;95197.25;5074780;28;20103;-72
2022/04/30 07:33:26;;;;;;;7.45;6.72;;;;;;;16.74;47.32;95196.69;5086333;28;20025;-71
2022/04/30 07:35:53;;;;;;;7.40;6.70;;;;;;;16.96;46.50;95201.41;5073491;28;20429;-71
2022/04/30 07:38:18;;;;;;;9.07;8.00;;;;;;;17.08;46.35;95188.03;5082170;28;20505;-72
2022/04/30 07:40:44;;;;;;;7.60;6.90;;;;;;;17.20;46.52;95189.41;5067999;28;20040;-72
2022/04/30 07:43:09;;;;;;;7.82;7.00;;;;;;;17.28;46.48;95189.44;5091827;28;20024;-70
2022/04/30 07:45:37;;;;;;;8.30;7.50;;;;;;;17.19;46.73;95177.25;5081348;28;20127;-70
2022/04/30 07:48:04;;;;;;;12.98;7.90;;;;;;;17.28;45.69;95181.53;5075909;28;20024;-70
2022/04/30 07:50:35;;;;;;;8.07;6.80;;;;;;;17.25;44.83;95178.44;5088556;28;20071;-71
2022/04/30 07:53:04;;;;;;;7.28;6.55;;;;;;;17.22;45.76;95171.69;5084777;28;20028;-70
2022/04/30 07:55:29;;;;;;;8.10;7.30;;;;;;;17.32;44.79;95182.84;5072314;28;20045;-72
2022/04/30 07:57:55;;;;;;;7.47;6.68;;;;;;;17.33;43.87;95166.16;5070529;28;20028;-73
2022/04/30 08:00:20;;;;;;;7.25;6.43;;;;;;;17.30;44.40;95171.72;5073188;28;20035;-71
2022/04/30 08:02:47;;;;;;;7.65;6.72;;;;;;;17.39;44.85;95162.06;5044605;28;20375;-72
2022/04/30 08:05:12;;;;;;;7.95;7.15;;;;;;;17.54;43.37;95178.81;5072966;28;20448;-72
2022/04/30 08:07:38;;;;;;;9.40;8.40;;;;;;;17.36;44.53;95170.25;5068064;28;20055;-71
2022/04/30 08:10:03;;;;;;;9.75;8.65;;;;;;;17.41;44.15;95160.06;5072872;28;20036;-71
2022/04/30 08:12:29;;;;;;;12.20;11.02;;;;;;;17.41;43.10;95154.81;5077690;28;20028;-75
2022/04/30 08:14:54;;;;;;;9.90;8.90;;;;;;;17.54;43.51;95170.94;5051605;28;20032;-72
2022/04/30 08:17:20;;;;;;;7.68;6.97;;;;;;;17.52;43.61;95177.34;5074459;28;20093;-70
2022/04/30 08:19:45;;;;;;;7.07;6.38;;;;;;;17.59;43.68;95173.91;5091859;28;20032;-70
2022/04/30 08:22:11;;;;;;;7.45;6.75;;;;;;;17.72;43.92;95164.72;5092161;28;20035;-70
2022/04/30 08:24:36;;;;;;;6.93;6.28;;;;;;;17.87;41.79;95165.78;5071485;28;20048;-70
2022/04/30 08:27:02;;;;;;;9.80;8.32;;;;;;;17.86;41.55;95169.41;5080704;28;20115;-72
2022/04/30 08:29:28;;;;;;;8.02;7.20;;;;;;;17.93;41.54;95162.47;5091667;28;20119;-69
2022/04/30 08:31:54;;;;;;;8.13;6.45;;;;;;;18.01;42.56;95164.28;5088699;28;20025;-70
2022/04/30 08:34:19;;;;;;;7.35;6.65;;;;;;;17.94;42.01;95156.25;5056668;28;20039;-70
2022/04/30 08:36:45;;;;;;;7.32;6.15;;;;;;;17.93;40.98;95159.84;5061996;28;20402;-70
2022/04/30 08:39:11;;;;;;;8.43;5.72;;;;;;;17.92;40.30;95158.22;5089290;28;20051;-70
2022/04/30 08:41:36;;;;;;;9.25;6.15;;;;;;;17.72;39.98;95152.44;5091291;28;20024;-70
2022/04/30 08:44:01;;;;;;;7.03;6.32;;;;;;;17.55;40.37;95140.25;5092500;28;20443;-70
2022/04/30 08:46:27;;;;;;;5.95;5.30;;;;;;;17.69;41.00;95158.00;5056235;28;20035;-70
2022/04/30 08:48:52;;;;;;;6.13;5.22;;;;;;;17.79;39.64;95153.44;5081921;28;20032;-70
2022/04/30 08:51:18;;;;;;;5.88;5.28;;;;;;;17.85;38.85;95152.78;5055205;28;20027;-70
2022/04/30 08:53:43;;;;;;;5.72;5.13;;;;;;;17.89;38.79;95153.28;5088273;28;20058;-69
2022/04/30 08:56:10;;;;;;;6.63;5.78;;;;;;;17.91;39.42;95151.31;5054524;28;20052;-70
2022/04/30 08:58:35;;;;;;;6.10;5.45;;;;;;;17.99;40.07;95143.41;5078621;28;20035;-70
2022/04/30 09:01:02;;;;;;;5.97;5.38;;;;;;;17.98;39.18;95143.59;5081441;28;20040;-70
2022/04/30 09:03:32;;;;;;;12.13;6.53;;;;;;;17.94;40.16;95144.91;5074296;28;20551;-70
2022/04/30 09:05:58;;;;;;;7.15;5.80;;;;;;;17.90;38.25;95147.03;5056931;28;20031;-70
2022/04/30 09:08:23;;;;;;;5.93;5.32;;;;;;;17.94;39.06;95139.66;5090266;28;20024;-70
2022/04/30 09:10:49;;;;;;;9.75;5.85;;;;;;;17.97;39.22;95134.06;5077235;28;20036;-70
2022/04/30 09:13:15;;;;;;;7.38;5.53;;;;;;;18.06;39.55;95128.66;5084092;28;20081;-73
2022/04/30 09:15:44;;;;;;;6.18;5.57;;;;;;;18.21;39.49;95131.41;5074440;28;20111;-74
2022/04/30 09:18:09;;;;;;;6.25;5.65;;;;;;;18.30;40.96;95132.22;5073255;28;20020;-73
2022/04/30 09:20:49;;;;;;;6.18;5.35;;;;;;;18.50;42.89;95130.06;5053334;28;20115;-74
2022/04/30 09:23:29;;;;;;;7.63;5.63;;;;;;;18.61;40.90;95132.34;5042908;28;20029;-74
2022/04/30 09:25:56;;;;;;;7.90;5.90;;;;;;;18.69;41.53;95140.22;5053547;28;20035;-74
2022/04/30 09:28:26;;;;;;;6.43;5.30;;;;;;;18.52;41.64;95133.34;5081072;28;20573;-71
2022/04/30 09:30:51;;;;;;;7.35;5.30;;;;;;;18.57;41.27;95133.66;5070175;28;20070;-72
2022/04/30 09:33:18;;;;;;;8.20;5.13;;;;;;;18.63;41.18;95124.28;5076780;28;20024;-72
2022/04/30 09:38:36;;;;;;;7.53;4.70;;;;;;;18.88;40.26;95128.50;5084733;28;20422;-73
2022/04/30 09:41:07;;;;;;;11.23;5.15;;;;;;;18.84;40.26;95131.66;5069256;28;20437;-70
2022/04/30 09:43:34;;;;;;;13.75;6.10;;;;;;;18.78;40.93;95133.16;5086865;28;20032;-70
2022/04/30 09:46:00;;;;;;;4.90;4.20;;;;;;;18.88;40.61;95131.13;5081264;28;20127;-70
2022/04/30 09:53:57;;;;;;;6.22;3.40;;;;;;;18.76;39.47;95106.19;5082347;28;20044;-73
2022/04/30 09:56:35;;;;;;;6.20;3.80;;;;;;;18.62;39.42;95115.56;5066144;28;20028;-73
2022/04/30 09:59:09;;;;;;;5.93;3.80;;;;;;;18.65;39.88;95106.50;5085112;28;20165;-73
2022/04/30 10:01:35;;;;;;;4.85;3.72;;;;;;;18.71;39.80;95117.16;5079363;28;20067;-73
2022/04/30 10:04:05;;;;;;;6.30;3.80;;;;;;;18.82;39.62;95113.38;5086382;28;20139;-73
2022/04/30 10:06:30;;;;;;;6.22;3.17;;;;;;;18.85;38.79;95101.69;5063854;28;20425;-73
2022/04/30 10:08:56;;;;;;;4.13;3.72;;;;;;;18.88;39.67;95096.91;5083232;28;20028;-73
2022/04/30 10:11:55;;;;;;;4.70;3.55;;;;;;;19.01;38.80;95103.44;5077123;28;20043;-73
2022/04/30 10:14:31;;;;;;;6.50;4.82;;;;;;;19.16;39.84;95093.81;5060462;28;20101;-73
2022/04/30 10:17:12;;;;;;;6.10;4.32;;;;;;;19.20;40.12;95082.78;5083556;28;20020;-72
2022/04/30 10:19:41;;;;;;;5.00;3.92;;;;;;;19.26;38.79;95085.72;5059171;28;20482;-72
2022/04/30 10:22:13;;;;;;;5.20;3.70;;;;;;;19.28;38.71;95081.06;5082267;28;20028;-72
2022/04/30 10:24:48;;;;;;;4.70;3.78;;;;;;;19.07;36.56;95071.97;5087019;28;20039;-73
2022/04/30 10:27:14;;;;;;;5.57;4.00;;;;;;;18.91;38.54;95074.69;5088392;28;20042;-72
2022/04/30 10:29:57;;;;;;;4.85;4.15;;;;;;;19.03;38.02;95061.94;5089611;28;20036;-72
2022/04/30 10:32:25;;;;;;;4.78;4.15;;;;;;;18.90;38.68;95073.06;5068822;28;20449;-72
2022/04/30 10:34:51;;;;;;;5.53;4.40;;;;;;;19.01;39.30;95072.66;5086364;28;20064;-73
2022/04/30 10:37:26;;;;;;;4.82;4.32;;;;;;;18.97;37.77;95071.34;5068751;28;20321;-72
2022/04/30 10:39:59;;;;;;;5.68;4.00;;;;;;;18.72;38.58;95070.63;5087933;28;20040;-72
2022/04/30 10:42:29;;;;;;;5.38;3.92;;;;;;;18.61;38.78;95063.94;5088056;28;20032;-72
2022/04/30 10:44:55;;;;;;;4.88;4.38;;;;;;;18.76;38.76;95061.44;5087995;28;20036;-72
2022/04/30 10:47:20;;;;;;;4.80;3.97;;;;;;;18.91;38.29;95061.53;5065001;28;20092;-72
2022/04/30 10:49:46;;;;;;;4.50;4.05;;;;;;;18.97;37.99;95069.56;5080155;28;20036;-72
2022/04/30 10:52:11;;;;;;;4.65;4.10;;;;;;;18.94;37.39;95067.28;5086681;28;20383;-72
2022/04/30 10:54:37;;;;;;;7.03;4.20;;;;;;;18.74;38.84;95063.41;5067917;28;20032;-73
2022/04/30 10:57:04;;;;;;;6.65;4.50;;;;;;;18.88;38.58;95069.78;5067652;28;20028;-73
2022/04/30 10:59:29;;;;;;;7.60;4.47;;;;;;;19.00;37.81;95063.16;5073601;28;20079;-74
2022/04/30 11:01:55;;;;;;;7.45;4.30;;;;;;;19.12;38.29;95066.19;5085864;28;20474;-72
2022/04/30 11:04:20;;;;;;;4.65;4.15;;;;;;;19.19;37.89;95060.06;5075715;28;20037;-72
2022/04/30 11:06:47;;;;;;;6.72;3.97;;;;;;;19.28;37.72;95070.53;5079878;28;20032;-74
2022/04/30 11:09:13;;;;;;;4.57;4.00;;;;;;;19.19;38.58;95054.81;5081590;28;20028;-72
2022/04/30 11:11:38;;;;;;;4.97;3.78;;;;;;;18.86;37.58;95056.81;5085937;28;20382;-72
2022/04/30 11:14:08;;;;;;;4.40;3.92;;;;;;;18.74;38.32;95064.22;5087550;28;20028;-72
2022/04/30 11:16:35;;;;;;;4.80;4.07;;;;;;;18.62;38.68;95060.31;5092052;28;20027;-72
2022/04/30 11:19:07;;;;;;;4.38;3.78;;;;;;;18.60;39.15;95056.22;5087034;28;20116;-72
2022/04/30 11:21:34;;;;;;;4.32;3.88;;;;;;;18.57;38.45;95064.44;5079125;28;20398;-72
2022/04/30 11:23:59;;;;;;;4.28;3.85;;;;;;;18.31;39.21;95062.88;5091892;28;20034;-72
2022/04/30 11:26:25;;;;;;;5.82;4.35;;;;;;;18.40;39.00;95058.41;5072246;28;20024;-72
2022/04/30 11:28:50;;;;;;;6.75;3.65;;;;;;;18.38;38.44;95057.75;5082184;28;20040;-72
2022/04/30 11:31:22;;;;;;;6.68;4.20;;;;;;;18.40;38.83;95058.41;5074230;28;20059;-72
2022/04/30 11:33:47;;;;;;;9.15;7.28;;;;;;;18.39;38.87;95054.16;5064973;28;20028;-71
2022/04/30 11:36:13;;;;;;;9.48;5.10;;;;;;;18.47;39.10;95054.09;5087992;28;20044;-72
2022/04/30 11:38:38;;;;;;;4.43;3.53;;;;;;;18.50;38.45;95053.78;5087318;28;20034;-73
2022/04/30 11:41:09;;;;;;;7.63;3.88;;;;;;;18.35;39.03;95053.66;5069821;28;20039;-72
2022/04/30 11:43:36;;;;;;;5.18;3.40;;;;;;;18.41;38.04;95060.06;5091674;28;20399;-72
2022/04/30 11:46:02;;;;;;;4.00;3.53;;;;;;;18.23;39.45;95055.84;5092752;28;20405;-72
2022/04/30 11:48:31;;;;;;;6.53;3.50;;;;;;;18.04;39.88;95050.94;5086198;28;20510;-71
2022/04/30 11:50:57;;;;;;;4.32;3.40;;;;;;;18.00;39.35;95052.28;5090911;28;20040;-72
2022/04/30 11:53:23;;;;;;;3.80;3.40;;;;;;;17.99;39.54;95051.44;5086560;28;20031;-72
2022/04/30 11:55:48;;;;;;;4.28;3.42;;;;;;;18.00;39.86;95049.66;5093211;28;20497;-71
2022/04/30 11:58:13;;;;;;;6.10;5.18;;;;;;;18.07;39.51;95035.66;5091276;28;20036;-71
2022/04/30 12:00:39;;;;;;;6.88;3.60;;;;;;;17.98;40.10;95046.34;5088699;28;20383;-71
2022/04/30 12:03:04;;;;;;;8.13;3.60;;;;;;;17.92;40.18;95049.66;5073009;28;20508;-72
2022/04/30 12:05:31;;;;;;;9.68;4.60;;;;;;;17.99;40.15;95045.38;5089742;28;20026;-71